createdAt,value
2023-05-19T00:01:16.845Z,99779.78
2023-05-19T00:03:54.117Z,99774.72
2023-05-19T00:06:25.815Z,99786.66
2023-05-19T00:09:01.378Z,99791.63
2023-05-19T00:11:29.307Z,99802.34
2023-05-19T00:14:00.108Z,99792.47
2023-05-19T00:16:28.138Z,99795.00
2023-05-19T00:18:55.089Z,99788.47
2023-05-19T00:21:21.867Z,99787.97
2023-05-19T00:23:48.656Z,99800.78
2023-05-19T00:26:15.817Z,99805.00
2023-05-19T00:28:42.517Z,99788.84
2023-05-19T00:31:09.221Z,99806.47
2023-05-19T00:33:35.996Z,99798.38
2023-05-19T00:36:06.262Z,99811.56
2023-05-19T00:38:35.136Z,99809.25
2023-05-19T00:41:02.906Z,99785.34
2023-05-19T00:43:34.628Z,99805.41
2023-05-19T00:46:01.569Z,99810.72
2023-05-19T00:48:28.850Z,99812.03
2023-05-19T00:51:02.344Z,99817.94
2023-05-19T00:53:29.589Z,99816.75
2023-05-19T00:55:56.600Z,99818.41
2023-05-19T00:58:24.080Z,99809.00
2023-05-19T01:00:50.890Z,99801.66
2023-05-19T01:03:20.526Z,99817.69
2023-05-19T01:05:53.861Z,99823.25
2023-05-19T01:08:20.798Z,99836.28
2023-05-19T01:10:47.561Z,99846.31
2023-05-19T01:13:14.941Z,99840.63
2023-05-19T01:15:56.901Z,99839.38
2023-05-19T01:18:33.087Z,99852.06
2023-05-19T01:21:18.685Z,99853.88
2023-05-19T01:23:51.167Z,99861.97
2023-05-19T01:26:37.915Z,99858.78
2023-05-19T01:29:19.552Z,99872.91
2023-05-19T01:31:48.148Z,99869.16
2023-05-19T01:34:15.309Z,99860.59
2023-05-19T01:36:44.970Z,99855.28
2023-05-19T01:39:12.223Z,99855.97
2023-05-19T01:41:42.206Z,99881.72
2023-05-19T01:44:10.100Z,99876.75
2023-05-19T01:46:38.113Z,99879.25
2023-05-19T01:49:06.008Z,99875.53
2023-05-19T01:51:32.716Z,99884.22
2023-05-19T01:53:59.523Z,99882.75
2023-05-19T01:56:44.835Z,99882.63
2023-05-19T01:59:42.578Z,99881.69
2023-05-19T02:02:35.870Z,99882.03
2023-05-19T02:05:10.596Z,99887.09
2023-05-19T02:07:45.704Z,99883.97
2023-05-19T02:10:18.823Z,99879.59
2023-05-19T02:12:46.210Z,99911.22
2023-05-19T02:15:22.514Z,99908.56
2023-05-19T02:17:52.175Z,99897.41
2023-05-19T02:20:19.123Z,99906.63
2023-05-19T02:22:45.928Z,99891.34
2023-05-19T02:25:12.871Z,99907.75
2023-05-19T02:27:40.080Z,99897.81
2023-05-19T02:30:08.500Z,99911.81
2023-05-19T02:32:36.634Z,99930.38
2023-05-19T02:35:04.210Z,99930.22
2023-05-19T02:37:31.279Z,99942.41
2023-05-19T02:39:58.230Z,99948.66
2023-05-19T02:42:24.940Z,99945.28
2023-05-19T02:44:54.281Z,99939.97
2023-05-19T02:47:21.251Z,99945.78
2023-05-19T02:49:47.947Z,99939.38
2023-05-19T02:52:14.605Z,99925.66
2023-05-19T02:54:41.330Z,99937.00
2023-05-19T02:57:08.067Z,99933.38
2023-05-19T02:59:34.760Z,99914.22
2023-05-19T03:02:02.919Z,99948.63
2023-05-19T03:04:30.263Z,99949.88
2023-05-19T03:07:00.327Z,99946.59
2023-05-19T03:09:27.241Z,99962.28
2023-05-19T03:11:53.874Z,99965.28
2023-05-19T03:14:24.108Z,99978.97
2023-05-19T03:16:51.326Z,99955.25
2023-05-19T03:19:18.434Z,99963.38
2023-05-19T03:21:45.170Z,99977.97
2023-05-19T03:24:12.157Z,99982.06
2023-05-19T03:26:39.122Z,99991.56
2023-05-19T03:29:06.139Z,99989.03
2023-05-19T03:31:33.336Z,99991.63
2023-05-19T03:34:00.047Z,99990.06
2023-05-19T03:36:32.311Z,99978.72
2023-05-19T03:38:59.530Z,99995.47
2023-05-19T03:41:26.342Z,99993.53
2023-05-19T03:43:53.133Z,99996.50
2023-05-19T03:46:20.028Z,99995.72
2023-05-19T03:48:46.933Z,99993.59
2023-05-19T03:51:13.679Z,99980.00
2023-05-19T03:53:41.374Z,99966.31
2023-05-19T03:56:08.934Z,99984.56
2023-05-19T03:58:37.291Z,99989.88
2023-05-19T04:01:03.995Z,99990.88
2023-05-19T04:03:30.836Z,99996.75
2023-05-19T04:05:57.544Z,100001.72
2023-05-19T04:08:24.340Z,99997.06
2023-05-19T04:10:51.084Z,99996.97
2023-05-19T04:13:17.736Z,99988.59
2023-05-19T04:15:44.539Z,99998.78
2023-05-19T04:18:11.294Z,100007.84
2023-05-19T04:20:38.164Z,100012.59
2023-05-19T04:23:04.860Z,100028.97
2023-05-19T04:25:31.554Z,100020.38
2023-05-19T04:27:58.198Z,100025.00
2023-05-19T04:30:25.086Z,100027.78
2023-05-19T04:32:51.863Z,100034.69
2023-05-19T04:35:19.668Z,100032.97
2023-05-19T04:37:46.425Z,100035.97
2023-05-19T04:40:13.568Z,100044.22
2023-05-19T04:42:45.931Z,100043.91
2023-05-19T04:45:14.266Z,100062.06
2023-05-19T04:47:42.489Z,100056.97
2023-05-19T04:50:11.172Z,100062.50
2023-05-19T04:52:37.920Z,100067.41
2023-05-19T04:55:04.996Z,100071.09
2023-05-19T04:57:31.907Z,100083.34
2023-05-19T05:00:00.356Z,100072.09
2023-05-19T05:02:30.124Z,100074.56
2023-05-19T05:04:56.933Z,100083.34
2023-05-19T05:07:24.088Z,100090.97
2023-05-19T05:09:51.254Z,100087.13
2023-05-19T05:12:18.955Z,100078.56
2023-05-19T05:14:45.972Z,100091.69
2023-05-19T05:17:13.431Z,100081.72
2023-05-19T05:19:40.580Z,100082.59
2023-05-19T05:22:07.585Z,100087.13
2023-05-19T05:24:34.690Z,100068.91
2023-05-19T05:27:01.760Z,100076.50
2023-05-19T05:29:28.650Z,100070.06
2023-05-19T05:31:55.539Z,100077.69
2023-05-19T05:34:22.325Z,100087.22
2023-05-19T05:36:49.149Z,100085.13
2023-05-19T05:39:16.138Z,100075.25
2023-05-19T05:41:42.894Z,100084.44
2023-05-19T05:44:09.610Z,100084.00
2023-05-19T05:46:36.544Z,100084.88
2023-05-19T05:49:03.540Z,100088.38
2023-05-19T05:51:32.959Z,100091.13
2023-05-19T05:54:00.663Z,100083.91
2023-05-19T05:56:27.820Z,100090.41
2023-05-19T05:58:54.521Z,100068.41
2023-05-19T06:01:22.136Z,100087.88
2023-05-19T06:03:48.944Z,100089.50
2023-05-19T06:06:15.777Z,100086.78
2023-05-19T06:08:42.765Z,100090.72
2023-05-19T06:11:09.813Z,100100.28
2023-05-19T06:13:37.115Z,100106.09
2023-05-19T06:16:04.537Z,100100.88
2023-05-19T06:18:31.324Z,100111.81
2023-05-19T06:20:58.265Z,100112.13
2023-05-19T06:23:26.880Z,100108.25
2023-05-19T06:25:53.605Z,100114.66
2023-05-19T06:28:20.278Z,100118.66
2023-05-19T06:30:47.079Z,100111.03
2023-05-19T06:33:13.812Z,100116.13
2023-05-19T06:35:40.678Z,100106.88
2023-05-19T06:38:07.376Z,100108.22
2023-05-19T06:40:34.512Z,100110.16
2023-05-19T06:43:01.522Z,100101.91
2023-05-19T06:45:28.327Z,100087.41
2023-05-19T06:47:55.650Z,100095.75
2023-05-19T06:50:22.429Z,100091.94
2023-05-19T06:52:49.235Z,100100.81
2023-05-19T06:55:16.090Z,100084.41
2023-05-19T06:57:43.305Z,100073.00
2023-05-19T07:00:14.511Z,100080.78
2023-05-19T07:02:42.890Z,100075.22
2023-05-19T07:05:09.883Z,100072.34
2023-05-19T07:07:36.589Z,100062.78
2023-05-19T07:10:03.358Z,100068.50
2023-05-19T07:12:30.263Z,100061.09
2023-05-19T07:14:57.068Z,100062.31
2023-05-19T07:17:23.815Z,100065.47
2023-05-19T07:19:50.626Z,100066.56
2023-05-19T07:22:17.428Z,100048.66
2023-05-19T07:24:44.122Z,100061.44
2023-05-19T07:27:13.496Z,100067.53
2023-05-19T07:29:40.192Z,100054.47
2023-05-19T07:32:07.274Z,100044.97
2023-05-19T07:34:33.964Z,100050.84
2023-05-19T07:37:00.757Z,100057.78
2023-05-19T07:39:29.831Z,100051.59
2023-05-19T07:41:56.747Z,100050.69
2023-05-19T07:44:23.644Z,100040.78
2023-05-19T07:46:50.699Z,100019.03
2023-05-19T07:49:17.448Z,100019.88
2023-05-19T07:51:44.430Z,100043.47
2023-05-19T07:54:14.117Z,100025.06
2023-05-19T07:56:41.629Z,100041.44
2023-05-19T07:59:08.430Z,100026.19
2023-05-19T08:01:35.386Z,100057.69
2023-05-19T08:04:02.556Z,100044.66
2023-05-19T08:06:30.510Z,100031.44
2023-05-19T08:08:57.443Z,100027.09
2023-05-19T08:11:24.207Z,100036.91
2023-05-19T08:13:51.197Z,100022.72
2023-05-19T08:16:17.936Z,100038.72
2023-05-19T08:18:44.814Z,100054.59
2023-05-19T08:21:11.924Z,99995.28
2023-05-19T08:23:38.854Z,100047.16
2023-05-19T08:26:05.845Z,100040.84
2023-05-19T08:28:32.573Z,100012.50
2023-05-19T08:30:59.548Z,100045.31
2023-05-19T08:33:26.407Z,100052.22
2023-05-19T08:35:53.220Z,100041.16
2023-05-19T08:38:19.983Z,100042.72
2023-05-19T08:40:48.552Z,100054.56
2023-05-19T08:43:15.365Z,100044.66
2023-05-19T08:45:48.412Z,100044.78
2023-05-19T08:48:17.685Z,100035.31
2023-05-19T08:50:50.420Z,100053.00
2023-05-19T08:53:33.152Z,100060.34
2023-05-19T08:56:22.911Z,100056.44
2023-05-19T08:58:51.054Z,100074.13
2023-05-19T09:01:18.799Z,100070.72
2023-05-19T09:03:46.763Z,100051.34
2023-05-19T09:06:13.760Z,100050.66
2023-05-19T09:08:41.733Z,100040.50
2023-05-19T09:11:14.912Z,100034.47
2023-05-19T09:13:43.896Z,99939.69
2023-05-19T09:16:11.946Z,99986.16
2023-05-19T09:18:39.520Z,100041.25
2023-05-19T09:21:07.474Z,100056.75
2023-05-19T09:23:34.378Z,100047.50
2023-05-19T09:26:07.869Z,100016.53
2023-05-19T09:28:36.640Z,100043.63
2023-05-19T09:31:08.042Z,100052.81
2023-05-19T09:33:36.347Z,100051.34
2023-05-19T09:36:06.198Z,100057.00
2023-05-19T09:38:33.286Z,100039.94
2023-05-19T09:41:01.317Z,100034.06
2023-05-19T09:43:29.426Z,100040.19
2023-05-19T09:46:10.580Z,100051.66
2023-05-19T09:48:38.706Z,100052.78
2023-05-19T09:51:08.043Z,100055.84
2023-05-19T09:53:35.454Z,100056.34
2023-05-19T09:56:03.596Z,100016.88
2023-05-19T09:58:37.620Z,100037.19
2023-05-19T10:01:05.624Z,100044.03
2023-05-19T10:03:35.329Z,100034.16
2023-05-19T10:06:02.907Z,100039.84
2023-05-19T10:08:30.850Z,100040.16
2023-05-19T10:10:58.384Z,100045.94
2023-05-19T10:13:26.103Z,100040.34
2023-05-19T10:15:58.596Z,100035.31
2023-05-19T10:18:27.350Z,100035.34
2023-05-19T10:20:59.192Z,100045.41
2023-05-19T10:23:26.560Z,100022.41
2023-05-19T10:25:56.643Z,100011.25
2023-05-19T10:28:26.800Z,100037.91
2023-05-19T10:30:56.900Z,100034.63
2023-05-19T10:33:34.212Z,100059.53
2023-05-19T10:36:32.238Z,100069.31
2023-05-19T10:39:22.207Z,100051.47
2023-05-19T10:42:18.340Z,100054.66
2023-05-19T10:45:21.490Z,100035.06
2023-05-19T10:47:51.218Z,100050.28
2023-05-19T10:50:17.998Z,100024.09
2023-05-19T10:52:44.954Z,100025.28
2023-05-19T10:55:18.075Z,100024.31
2023-05-19T10:57:56.854Z,100019.59
2023-05-19T11:00:28.202Z,100037.06
2023-05-19T11:02:57.983Z,100029.16
2023-05-19T11:05:29.640Z,100029.44
2023-05-19T11:08:02.483Z,100016.50
2023-05-19T11:10:29.479Z,100041.16
2023-05-19T11:12:58.282Z,100026.31
2023-05-19T11:15:28.894Z,100042.78
2023-05-19T11:17:56.026Z,100044.91
2023-05-19T11:20:27.774Z,100064.16
2023-05-19T11:23:03.779Z,100057.34
2023-05-19T11:25:41.729Z,100046.16
2023-05-19T11:28:09.024Z,100062.94
2023-05-19T11:30:35.969Z,100037.84
2023-05-19T11:33:03.003Z,100049.47
2023-05-19T11:35:29.928Z,100073.94
2023-05-19T11:37:58.818Z,100067.25
2023-05-19T11:40:26.033Z,100064.91
2023-05-19T11:42:53.161Z,100081.25
2023-05-19T11:45:26.074Z,100085.94
2023-05-19T11:48:02.104Z,100071.97
2023-05-19T11:50:32.045Z,100067.28
2023-05-19T11:53:03.080Z,100080.69
2023-05-19T11:55:30.439Z,100110.91
2023-05-19T11:58:05.200Z,100069.66
2023-05-19T12:00:39.591Z,100075.47
2023-05-19T12:03:07.779Z,100086.59
2023-05-19T12:05:44.903Z,100087.00
2023-05-19T12:08:12.893Z,100096.28
2023-05-19T12:10:40.906Z,100090.50
2023-05-19T12:13:10.904Z,100092.91
2023-05-19T12:15:39.946Z,100065.72
2023-05-19T12:18:07.557Z,100034.53
2023-05-19T12:20:38.099Z,100058.13
2023-05-19T12:23:05.630Z,100018.63
2023-05-19T12:25:33.057Z,99999.81
2023-05-19T12:28:03.672Z,100029.09
2023-05-19T12:30:32.911Z,100025.84
2023-05-19T12:33:00.546Z,100031.19
2023-05-19T12:35:33.427Z,100093.44
2023-05-19T12:38:09.238Z,100080.22
2023-05-19T12:40:37.543Z,100074.75
2023-05-19T12:43:05.783Z,100063.84
2023-05-19T12:45:36.897Z,100098.88
2023-05-19T12:48:11.778Z,100092.44
2023-05-19T12:50:38.689Z,100065.31
2023-05-19T12:53:09.677Z,100061.97
2023-05-19T12:55:44.466Z,100081.00
2023-05-19T12:58:16.030Z,100076.56
2023-05-19T13:00:45.488Z,100073.00
2023-05-19T13:03:19.712Z,100062.19
2023-05-19T13:05:49.054Z,100067.31
2023-05-19T13:08:18.300Z,100060.47
2023-05-19T13:10:46.321Z,100096.41
2023-05-19T13:13:13.596Z,100100.09
2023-05-19T13:15:46.083Z,100130.47
2023-05-19T13:18:13.628Z,100104.16
2023-05-19T13:20:42.007Z,100103.56
2023-05-19T13:23:10.982Z,100093.72
2023-05-19T13:25:37.998Z,100098.09
2023-05-19T13:28:10.766Z,100102.22
2023-05-19T13:30:39.399Z,100106.94
2023-05-19T13:33:06.585Z,100098.59
2023-05-19T13:35:42.224Z,100086.03
2023-05-19T13:38:10.455Z,100095.09
2023-05-19T13:40:37.873Z,100094.88
2023-05-19T13:43:05.136Z,100112.97
2023-05-19T13:45:31.912Z,100101.13
2023-05-19T13:47:58.925Z,100111.56
2023-05-19T13:50:25.813Z,100116.38
2023-05-19T13:52:52.672Z,100121.81
2023-05-19T13:55:19.778Z,100135.31
2023-05-19T13:57:46.629Z,100118.53
2023-05-19T14:00:14.009Z,100102.88
2023-05-19T14:02:41.064Z,100144.28
2023-05-19T14:05:08.792Z,100179.66
2023-05-19T14:07:35.845Z,100185.09
2023-05-19T14:10:04.156Z,100176.31
2023-05-19T14:12:41.640Z,100168.41
2023-05-19T14:15:17.877Z,100160.13
2023-05-19T14:17:44.860Z,100186.81
2023-05-19T14:20:12.174Z,100205.56
2023-05-19T14:22:39.022Z,100205.56
2023-05-19T14:25:06.566Z,100186.09
2023-05-19T14:27:33.202Z,100189.91
2023-05-19T14:30:00.200Z,100174.50
2023-05-19T14:32:28.594Z,100163.00
2023-05-19T14:34:56.853Z,100179.28
2023-05-19T14:37:24.383Z,100153.22
2023-05-19T14:39:51.307Z,100204.56
2023-05-19T14:42:17.975Z,100154.19
2023-05-19T14:44:44.716Z,100189.75
2023-05-19T14:47:12.777Z,100216.59
2023-05-19T14:49:39.610Z,100233.56
2023-05-19T14:52:06.780Z,100253.88
2023-05-19T14:54:34.102Z,100270.72
2023-05-19T14:57:01.719Z,100290.91
2023-05-19T14:59:29.760Z,100322.69
2023-05-19T15:01:56.437Z,100294.97
2023-05-19T15:04:23.332Z,100354.00
2023-05-19T15:06:58.072Z,100351.91
2023-05-19T15:09:35.921Z,100325.13
2023-05-19T15:12:02.614Z,100263.88
2023-05-19T15:14:30.850Z,100246.94
2023-05-19T15:16:58.175Z,100275.22
2023-05-19T15:19:25.274Z,100201.31
2023-05-19T15:21:52.348Z,100165.41
2023-05-19T15:24:19.420Z,100179.28
2023-05-19T15:26:46.101Z,100128.81
2023-05-19T15:29:13.008Z,100165.06
2023-05-19T15:31:39.920Z,100126.81
2023-05-19T15:34:09.364Z,100084.44
2023-05-19T15:36:36.528Z,100158.44
2023-05-19T15:39:04.017Z,100162.38
2023-05-19T15:41:31.097Z,100156.41
2023-05-19T15:44:00.467Z,100116.91
2023-05-19T15:46:27.922Z,100123.13
2023-05-19T15:48:55.713Z,100135.13
2023-05-19T15:51:22.571Z,100137.06
2023-05-19T15:53:49.674Z,100131.94
2023-05-19T15:56:16.857Z,100130.25
2023-05-19T15:58:46.608Z,100179.47
2023-05-19T16:01:14.386Z,100155.09
2023-05-19T16:03:41.670Z,100074.00
2023-05-19T16:06:08.877Z,100081.31
2023-05-19T16:08:36.001Z,100163.03
2023-05-19T16:11:06.398Z,100198.94
2023-05-19T16:13:34.039Z,100221.19
2023-05-19T16:16:01.117Z,100252.56
2023-05-19T16:18:29.875Z,100242.53
2023-05-19T16:20:56.603Z,100287.19
2023-05-19T16:23:24.894Z,100305.47
2023-05-19T16:25:52.365Z,100305.84
2023-05-19T16:28:19.596Z,100319.47
2023-05-19T16:30:46.333Z,100295.72
2023-05-19T16:33:13.443Z,100312.09
2023-05-19T16:35:40.306Z,100310.38
2023-05-19T16:38:09.411Z,100327.78
2023-05-19T16:40:36.494Z,100346.44
2023-05-19T16:43:03.561Z,100339.56
2023-05-19T16:45:31.030Z,100344.91
2023-05-19T16:47:57.912Z,100339.75
2023-05-19T16:50:24.874Z,100340.72
2023-05-19T16:52:51.732Z,100386.94
2023-05-19T16:55:20.181Z,100380.34
2023-05-19T16:57:47.075Z,100365.78
2023-05-19T17:00:14.567Z,100374.31
2023-05-19T17:02:41.548Z,100380.25
2023-05-19T17:05:08.797Z,100397.69
2023-05-19T17:07:35.639Z,100401.84
2023-05-19T17:10:02.308Z,100431.91
2023-05-19T17:12:28.998Z,100433.75
2023-05-19T17:14:55.846Z,100452.22
2023-05-19T17:17:22.713Z,100414.41
2023-05-19T17:19:49.438Z,100423.09
2023-05-19T17:22:16.188Z,100454.25
2023-05-19T17:24:42.862Z,100415.34
2023-05-19T17:27:09.657Z,100449.56
2023-05-19T17:29:36.965Z,100425.13
2023-05-19T17:32:04.029Z,100426.81
2023-05-19T17:34:31.019Z,100454.56
2023-05-19T17:36:57.759Z,100447.94
2023-05-19T17:39:24.884Z,100443.19
2023-05-19T17:42:29.258Z,100457.19
2023-05-19T17:44:55.977Z,100432.31
2023-05-19T17:47:25.819Z,100466.09
2023-05-19T17:49:55.621Z,100485.31
2023-05-19T17:52:22.830Z,100491.94
2023-05-19T17:54:50.716Z,100496.84
2023-05-19T17:57:18.373Z,100501.03
2023-05-19T17:59:45.389Z,100516.38
2023-05-19T18:02:12.268Z,100528.06
2023-05-19T18:04:39.319Z,100545.78
2023-05-19T18:07:07.176Z,100547.00
2023-05-19T18:09:36.331Z,100555.34
2023-05-19T18:12:03.308Z,100584.31
2023-05-19T18:14:30.316Z,100604.75
2023-05-19T18:16:57.025Z,100578.03
2023-05-19T18:19:23.955Z,100609.97
2023-05-19T18:21:54.247Z,100587.50
2023-05-19T18:24:20.959Z,100529.44
2023-05-19T18:26:47.784Z,100563.91
2023-05-19T18:29:15.069Z,100564.88
2023-05-19T18:31:46.561Z,100536.41
2023-05-19T18:34:14.084Z,100569.44
2023-05-19T18:36:41.845Z,100571.03
2023-05-19T18:39:08.651Z,100569.78
2023-05-19T18:41:37.730Z,100550.75
2023-05-19T18:44:06.431Z,100560.56
2023-05-19T18:46:33.823Z,100555.75
2023-05-19T18:49:00.817Z,100519.41
2023-05-19T18:51:28.084Z,100572.72
2023-05-19T18:53:54.745Z,100551.91
2023-05-19T18:56:26.263Z,100539.84
2023-05-19T18:58:54.081Z,100496.22
2023-05-19T19:01:20.969Z,100554.47
2023-05-19T19:03:49.502Z,100540.47
2023-05-19T19:06:23.536Z,100562.53
2023-05-19T19:08:50.641Z,100539.00
2023-05-19T19:11:17.450Z,100568.94
2023-05-19T19:13:44.346Z,100565.91
2023-05-19T19:16:12.047Z,100584.78
2023-05-19T19:18:38.909Z,100592.56
2023-05-19T19:21:23.088Z,100600.81
2023-05-19T19:23:58.380Z,100511.00
2023-05-19T19:26:27.177Z,100528.72
2023-05-19T19:28:53.933Z,100637.75
2023-05-19T19:31:20.604Z,100647.63
2023-05-19T19:33:47.356Z,100652.13
2023-05-19T19:36:14.273Z,100654.13
2023-05-19T19:38:41.120Z,100650.25
2023-05-19T19:41:07.939Z,100645.97
2023-05-19T19:43:34.917Z,100653.66
2023-05-19T19:46:03.151Z,100651.75
2023-05-19T19:48:30.884Z,100666.75
2023-05-19T19:50:58.883Z,100676.38
2023-05-19T19:53:25.666Z,100668.63
2023-05-19T19:56:03.421Z,100685.94
2023-05-19T19:58:30.714Z,100686.22
2023-05-19T20:01:03.012Z,100696.06
2023-05-19T20:03:30.437Z,100688.91
2023-05-19T20:05:57.545Z,100702.75
2023-05-19T20:08:25.319Z,100722.13
2023-05-19T20:10:52.378Z,100738.53
2023-05-19T20:13:19.442Z,100746.75
2023-05-19T20:15:47.114Z,100743.44
2023-05-19T20:18:14.054Z,100748.06
2023-05-19T20:20:41.521Z,100758.69
2023-05-19T20:23:08.301Z,100766.63
2023-05-19T20:25:53.666Z,100768.84
2023-05-19T20:28:25.875Z,100765.66
2023-05-19T20:30:52.659Z,100759.53
2023-05-19T20:33:19.339Z,100737.31
2023-05-19T20:35:46.469Z,100753.81
2023-05-19T20:38:13.411Z,100731.41
2023-05-19T20:40:40.436Z,100739.94
2023-05-19T20:43:07.318Z,100757.34
2023-05-19T20:45:34.310Z,100769.84
2023-05-19T20:48:02.916Z,100768.66
2023-05-19T20:50:30.125Z,100756.19
2023-05-19T20:52:56.890Z,100746.59
2023-05-19T20:55:23.604Z,100724.91
2023-05-19T20:57:50.555Z,100737.72
2023-05-19T21:00:17.592Z,100765.31
2023-05-19T21:02:44.586Z,100745.25
2023-05-19T21:05:11.611Z,100779.59
2023-05-19T21:07:44.014Z,100771.66
2023-05-19T21:10:13.793Z,100774.81
2023-05-19T21:12:40.718Z,100776.44
2023-05-19T21:15:08.073Z,100772.75
2023-05-19T21:17:34.852Z,100786.97
2023-05-19T21:20:02.193Z,100760.47
2023-05-19T21:22:28.981Z,100786.16
2023-05-19T21:24:56.818Z,100810.41
2023-05-19T21:27:23.613Z,100807.97
2023-05-19T21:29:54.294Z,100798.91
2023-05-19T21:32:21.712Z,100794.44
2023-05-19T21:34:48.416Z,100794.66
2023-05-19T21:37:17.364Z,100788.72
2023-05-19T21:39:44.507Z,100780.84
2023-05-19T21:42:11.408Z,100782.84
2023-05-19T21:44:38.210Z,100773.44
2023-05-19T21:47:04.985Z,100787.03
2023-05-19T21:49:31.957Z,100791.78
2023-05-19T21:51:58.808Z,100767.50
2023-05-19T21:54:25.653Z,100807.06
2023-05-19T21:56:52.459Z,100800.25
2023-05-19T21:59:23.219Z,100797.09
2023-05-19T22:01:50.322Z,100824.25
2023-05-19T22:04:18.763Z,100802.78
2023-05-19T22:06:45.676Z,100833.72
2023-05-19T22:09:12.981Z,100842.78
2023-05-19T22:11:40.131Z,100830.63
2023-05-19T22:14:07.291Z,100859.91
2023-05-19T22:16:34.224Z,100856.34
2023-05-19T22:19:01.106Z,100874.41
2023-05-19T22:21:28.083Z,100874.34
2023-05-19T22:23:54.950Z,100858.78
2023-05-19T22:26:22.255Z,100840.47
2023-05-19T22:28:50.015Z,100874.34
2023-05-19T22:31:16.915Z,100858.44
2023-05-19T22:33:44.175Z,100863.75
2023-05-19T22:36:14.081Z,100875.81
2023-05-19T22:38:40.983Z,100898.25
2023-05-19T22:41:07.734Z,100894.69
2023-05-19T22:43:34.427Z,100922.75
2023-05-19T22:46:01.409Z,100951.19
2023-05-19T22:48:28.440Z,100915.53
2023-05-19T22:50:55.177Z,100929.22
2023-05-19T22:53:21.840Z,100916.38
2023-05-19T22:55:48.621Z,100914.25
2023-05-19T22:58:17.986Z,100894.25
2023-05-19T23:00:45.185Z,100930.06
2023-05-19T23:03:12.182Z,100901.19
2023-05-19T23:05:38.898Z,100942.94
2023-05-19T23:08:05.957Z,100947.38
2023-05-19T23:10:32.617Z,100963.69
2023-05-19T23:12:59.334Z,100990.06
2023-05-19T23:15:26.282Z,101009.84
2023-05-19T23:17:52.943Z,101042.53
2023-05-19T23:20:19.772Z,101017.06
2023-05-19T23:22:46.501Z,101058.81
2023-05-19T23:25:13.348Z,101074.81
2023-05-19T23:27:40.079Z,101095.13
2023-05-19T23:30:07.604Z,101107.91
2023-05-19T23:32:34.453Z,101098.38
2023-05-19T23:35:14.688Z,101118.69
2023-05-19T23:37:41.570Z,101126.88
2023-05-19T23:40:08.814Z,101145.56
2023-05-19T23:42:35.797Z,101136.13
2023-05-19T23:45:02.889Z,101162.38
2023-05-19T23:47:29.648Z,101168.78
2023-05-19T23:49:56.439Z,101162.69
2023-05-19T23:52:23.612Z,101171.59
2023-05-19T23:54:50.401Z,101177.28
2023-05-19T23:57:17.216Z,101157.53
2023-05-19T23:59:44.130Z,101165.25
